PWSweather.com
Personal Weather Stations
Station Observations
IESRVJEREZ
Ies Fco. Romero Vargas, Jerez De La FronteraES 11408

Ies Fco. Romero VargasJerez De La FronteraES 11408

Lat: 36.67203, Lon: -6.129915

Elevation: 98

Station Type: FWS 20

http://www.iesromerovargas.net/estacion_meteorologica/Cumulus/web/

Latest ConditionsUpdated 5:30:01 PM GMT+01:01 Monday, Dec 10, 2018
Currently Today's Max Today's Min Today's Average
Temperature 73.9°F23.3°C 75.7°F24.3°C 72.0°F22.2°C 72.2°F22.3°C
Dew Point 46.1°F7.8°C 55.4°F13.0°C 45.7°F7.6°C 54.9°F12.7°C
Winds 3.8 mph SE6.1 kmh SE 4.5 mph -7.2 kmh - - 3.1 mph 5.0 kmh
Wind Gusts 6.0 mph9.7 kmh 9.8 mph15.8 kmh - -
Humidity 37% 56% 10% 15%
Pressure 30.20 in1022.7 mb 30.32 in1026.8 mb 30.19 in1022.4 mb -
Hour Temp Dew Point Humidity Winds Wind Gusts Pressure Precip Precip Rate Daily Precip Total
05:30 PM 73.9°F23.3°C 46.1°F7.8°C 37% 3.8 mph SE6.1 kmh SE 6.0 mph9.7 kmh 30.20 in1022.7 mb 0.00 in0.0 mm 0.00 in0.0 mm 0.00 in0.0 mm
05:15 PM 74.8°F23.8°C 46.1°F7.8°C 36% 3.8 mph SSW6.1 kmh SSW 5.4 mph8.7 kmh 30.20 in1022.7 mb 0.00 in0.0 mm 0.00 in0.0 mm 0.00 in0.0 mm
05:00 PM 75.7°F24.3°C 46.2°F7.9°C 35% 2.2 mph S3.5 kmh S 6.9 mph11.1 kmh 30.19 in1022.4 mb 0.00 in0.0 mm 0.00 in0.0 mm 0.00 in0.0 mm
04:45 PM 75.2°F24.0°C 45.7°F7.6°C 35% 4.5 mph SE7.2 kmh SE 9.8 mph15.8 kmh 30.20 in1022.7 mb 0.00 in0.0 mm 0.00 in0.0 mm 0.00 in0.0 mm
04:30 PM 72.0°F22.2°C 55.4°F13.0°C 35% 3.8 mph SSE6.1 kmh SSE 9.8 mph15.8 kmh 30.20 in1022.7 mb 0.00 in0.0 mm 0.00 in0.0 mm 0.00 in0.0 mm
04:15 PM 72.0°F22.2°C 55.4°F13.0°C 33% 3.1 mph ESE5.0 kmh ESE 4.5 mph7.2 kmh 30.20 in1022.7 mb 0.00 in0.0 mm 0.00 in0.0 mm 0.00 in0.0 mm
04:00 PM 72.0°F22.2°C 55.4°F13.0°C 32% 2.2 mph SSE3.5 kmh SSE 7.6 mph12.2 kmh 30.21 in1023.0 mb 0.00 in0.0 mm 0.00 in0.0 mm 0.00 in0.0 mm
03:45 PM 72.0°F22.2°C 55.4°F13.0°C 10% 3.1 mph N5.0 kmh N 6.0 mph9.7 kmh 30.20 in1022.7 mb 0.00 in0.0 mm 0.00 in0.0 mm 0.00 in0.0 mm
03:30 PM 72.0°F22.2°C 55.4°F13.0°C 10% 3.1 mph N5.0 kmh N 6.0 mph9.7 kmh 30.21 in1023.0 mb 0.00 in0.0 mm 0.00 in0.0 mm 0.00 in0.0 mm
03:15 PM 72.0°F22.2°C 55.4°F13.0°C 10% 3.1 mph N5.0 kmh N 6.0 mph9.7 kmh 30.21 in1023.0 mb 0.00 in0.0 mm 0.00 in0.0 mm 0.00 in0.0 mm
03:00 PM 72.0°F22.2°C 55.4°F13.0°C 10% 3.1 mph N5.0 kmh N 6.0 mph9.7 kmh 30.21 in1023.0 mb 0.00 in0.0 mm 0.00 in0.0 mm 0.00 in0.0 mm
02:45 PM 72.0°F22.2°C 55.4°F13.0°C 10% 3.1 mph N5.0 kmh N 6.0 mph9.7 kmh 30.22 in1023.4 mb 0.00 in0.0 mm 0.00 in0.0 mm 0.00 in0.0 mm
02:30 PM 72.0°F22.2°C 55.4°F13.0°C 10% 3.1 mph N5.0 kmh N 6.0 mph9.7 kmh 30.23 in1023.7 mb 0.00 in0.0 mm 0.00 in0.0 mm 0.00 in0.0 mm
02:15 PM 72.0°F22.2°C 55.4°F13.0°C 10% 3.1 mph N5.0 kmh N 6.0 mph9.7 kmh 30.22 in1023.4 mb 0.00 in0.0 mm 0.00 in0.0 mm 0.00 in0.0 mm
02:00 PM 72.0°F22.2°C 55.4°F13.0°C 10% 3.1 mph N5.0 kmh N 6.0 mph9.7 kmh 30.23 in1023.7 mb 0.00 in0.0 mm 0.00 in0.0 mm 0.00 in0.0 mm
01:45 PM 72.0°F22.2°C 55.4°F13.0°C 10% 3.1 mph N5.0 kmh N 6.0 mph9.7 kmh 30.24 in1024.0 mb 0.00 in0.0 mm 0.00 in0.0 mm 0.00 in0.0 mm
01:30 PM 72.0°F22.2°C 55.4°F13.0°C 10% 3.1 mph N5.0 kmh N 6.0 mph9.7 kmh 30.25 in1024.4 mb 0.00 in0.0 mm 0.00 in0.0 mm 0.00 in0.0 mm
01:15 PM 72.0°F22.2°C 55.4°F13.0°C 10% 3.1 mph N5.0 kmh N 6.0 mph9.7 kmh 30.25 in1024.4 mb 0.00 in0.0 mm 0.00 in0.0 mm 0.00 in0.0 mm
01:00 PM 72.0°F22.2°C 55.4°F13.0°C 10% 3.1 mph N5.0 kmh N 6.0 mph9.7 kmh 30.26 in1024.7 mb 0.00 in0.0 mm 0.00 in0.0 mm 0.00 in0.0 mm
12:45 PM 72.0°F22.2°C 55.4°F13.0°C 10% 3.1 mph N5.0 kmh N 6.0 mph9.7 kmh 30.26 in1024.7 mb 0.00 in0.0 mm 0.00 in0.0 mm 0.00 in0.0 mm
12:30 PM 72.0°F22.2°C 55.4°F13.0°C 10% 3.1 mph N5.0 kmh N 6.0 mph9.7 kmh 30.27 in1025.1 mb 0.00 in0.0 mm 0.00 in0.0 mm 0.00 in0.0 mm
12:15 PM 72.0°F22.2°C 55.4°F13.0°C 10% 3.1 mph N5.0 kmh N 6.0 mph9.7 kmh 30.28 in1025.4 mb 0.00 in0.0 mm 0.00 in0.0 mm 0.00 in0.0 mm
12:00 PM 72.0°F22.2°C 55.4°F13.0°C 10% 3.1 mph N5.0 kmh N 6.0 mph9.7 kmh 30.28 in1025.4 mb 0.00 in0.0 mm 0.00 in0.0 mm 0.00 in0.0 mm
11:45 AM 72.0°F22.2°C 55.4°F13.0°C 10% 3.1 mph N5.0 kmh N 6.0 mph9.7 kmh 30.28 in1025.4 mb 0.00 in0.0 mm 0.00 in0.0 mm 0.00 in0.0 mm
11:30 AM 72.0°F22.2°C 55.4°F13.0°C 10% 3.1 mph N5.0 kmh N 6.0 mph9.7 kmh 30.28 in1025.4 mb 0.00 in0.0 mm 0.00 in0.0 mm 0.00 in0.0 mm
11:15 AM 72.0°F22.2°C 55.4°F13.0°C 10% 3.1 mph N5.0 kmh N 6.0 mph9.7 kmh 30.29 in1025.7 mb 0.00 in0.0 mm 0.00 in0.0 mm 0.00 in0.0 mm
11:00 AM 72.0°F22.2°C 55.4°F13.0°C 10% 3.1 mph N5.0 kmh N 6.0 mph9.7 kmh 30.28 in1025.4 mb 0.00 in0.0 mm 0.00 in0.0 mm 0.00 in0.0 mm
10:45 AM 72.0°F22.2°C 55.4°F13.0°C 10% 3.1 mph N5.0 kmh N 6.0 mph9.7 kmh 30.28 in1025.4 mb 0.00 in0.0 mm 0.00 in0.0 mm 0.00 in0.0 mm
10:30 AM 72.0°F22.2°C 55.4°F13.0°C 10% 3.1 mph N5.0 kmh N 6.0 mph9.7 kmh 30.28 in1025.4 mb 0.00 in0.0 mm 0.00 in0.0 mm 0.00 in0.0 mm
10:15 AM 72.0°F22.2°C 55.4°F13.0°C 10% 3.1 mph N5.0 kmh N 6.0 mph9.7 kmh 30.27 in1025.1 mb 0.00 in0.0 mm 0.00 in0.0 mm 0.00 in0.0 mm
10:00 AM 72.0°F22.2°C 55.4°F13.0°C 10% 3.1 mph N5.0 kmh N 6.0 mph9.7 kmh 30.27 in1025.1 mb 0.00 in0.0 mm 0.00 in0.0 mm 0.00 in0.0 mm
09:45 AM 72.0°F22.2°C 55.4°F13.0°C 10% 3.1 mph N5.0 kmh N 6.0 mph9.7 kmh 30.27 in1025.1 mb 0.00 in0.0 mm 0.00 in0.0 mm 0.00 in0.0 mm
09:30 AM 72.0°F22.2°C 55.4°F13.0°C 10% 3.1 mph N5.0 kmh N 6.0 mph9.7 kmh 30.27 in1025.1 mb 0.00 in0.0 mm 0.00 in0.0 mm 0.00 in0.0 mm
09:15 AM 72.0°F22.2°C 55.4°F13.0°C 10% 3.1 mph N5.0 kmh N 6.0 mph9.7 kmh 30.27 in1025.1 mb 0.00 in0.0 mm 0.00 in0.0 mm 0.00 in0.0 mm
09:00 AM 72.0°F22.2°C 55.4°F13.0°C 10% 3.1 mph N5.0 kmh N 6.0 mph9.7 kmh 30.27 in1025.1 mb 0.00 in0.0 mm 0.00 in0.0 mm 0.00 in0.0 mm
08:45 AM 72.0°F22.2°C 55.4°F13.0°C 10% 3.1 mph N5.0 kmh N 6.0 mph9.7 kmh 30.26 in1024.7 mb 0.00 in0.0 mm 0.00 in0.0 mm 0.00 in0.0 mm
08:30 AM 72.0°F22.2°C 55.4°F13.0°C 10% 3.1 mph N5.0 kmh N 6.0 mph9.7 kmh 30.27 in1025.1 mb 0.00 in0.0 mm 0.00 in0.0 mm 0.00 in0.0 mm
08:15 AM 72.0°F22.2°C 55.4°F13.0°C 10% 3.1 mph N5.0 kmh N 6.0 mph9.7 kmh 30.27 in1025.1 mb 0.00 in0.0 mm 0.00 in0.0 mm 0.00 in0.0 mm
08:00 AM 72.0°F22.2°C 55.4°F13.0°C 10% 3.1 mph N5.0 kmh N 6.0 mph9.7 kmh 30.27 in1025.1 mb 0.00 in0.0 mm 0.00 in0.0 mm 0.00 in0.0 mm
07:45 AM 72.0°F22.2°C 55.4°F13.0°C 10% 3.1 mph N5.0 kmh N 6.0 mph9.7 kmh 30.26 in1024.7 mb 0.00 in0.0 mm 0.00 in0.0 mm 0.00 in0.0 mm
07:30 AM 72.0°F22.2°C 55.4°F13.0°C 10% 3.1 mph N5.0 kmh N 6.0 mph9.7 kmh 30.26 in1024.7 mb 0.00 in0.0 mm 0.00 in0.0 mm 0.00 in0.0 mm
07:15 AM 72.0°F22.2°C 55.4°F13.0°C 10% 3.1 mph N5.0 kmh N 6.0 mph9.7 kmh 30.26 in1024.7 mb 0.00 in0.0 mm 0.00 in0.0 mm 0.00 in0.0 mm
07:00 AM 72.0°F22.2°C 55.4°F13.0°C 10% 3.1 mph N5.0 kmh N 6.0 mph9.7 kmh 30.25 in1024.4 mb 0.00 in0.0 mm 0.00 in0.0 mm 0.00 in0.0 mm
06:45 AM 72.0°F22.2°C 55.4°F13.0°C 10% 3.1 mph N5.0 kmh N 6.0 mph9.7 kmh 30.26 in1024.7 mb 0.00 in0.0 mm 0.00 in0.0 mm 0.00 in0.0 mm
06:30 AM 72.0°F22.2°C 55.4°F13.0°C 10% 3.1 mph N5.0 kmh N 6.0 mph9.7 kmh 30.25 in1024.4 mb 0.00 in0.0 mm 0.00 in0.0 mm 0.00 in0.0 mm
06:15 AM 72.0°F22.2°C 55.4°F13.0°C 10% 3.1 mph N5.0 kmh N 6.0 mph9.7 kmh 30.25 in1024.4 mb 0.00 in0.0 mm 0.00 in0.0 mm 0.00 in0.0 mm
06:00 AM 72.0°F22.2°C 55.4°F13.0°C 10% 3.1 mph N5.0 kmh N 6.0 mph9.7 kmh 30.26 in1024.7 mb 0.00 in0.0 mm 0.00 in0.0 mm 0.00 in0.0 mm
05:45 AM 72.0°F22.2°C 55.4°F13.0°C 10% 3.1 mph N5.0 kmh N 6.0 mph9.7 kmh 30.26 in1024.7 mb 0.00 in0.0 mm 0.00 in0.0 mm 0.00 in0.0 mm
05:30 AM 72.0°F22.2°C 55.4°F13.0°C 10% 3.1 mph N5.0 kmh N 6.0 mph9.7 kmh 30.26 in1024.7 mb 0.00 in0.0 mm 0.00 in0.0 mm 0.00 in0.0 mm
05:15 AM 72.0°F22.2°C 55.4°F13.0°C 10% 3.1 mph N5.0 kmh N 6.0 mph9.7 kmh 30.26 in1024.7 mb 0.00 in0.0 mm 0.00 in0.0 mm 0.00 in0.0 mm
05:00 AM 72.0°F22.2°C 55.4°F13.0°C 10% 3.1 mph N5.0 kmh N 6.0 mph9.7 kmh 30.26 in1024.7 mb 0.00 in0.0 mm 0.00 in0.0 mm 0.00 in0.0 mm
04:45 AM 72.0°F22.2°C 55.4°F13.0°C 10% 3.1 mph N5.0 kmh N 6.0 mph9.7 kmh 30.27 in1025.1 mb 0.00 in0.0 mm 0.00 in0.0 mm 0.00 in0.0 mm
04:30 AM 72.0°F22.2°C 55.4°F13.0°C 10% 3.1 mph N5.0 kmh N 6.0 mph9.7 kmh 30.27 in1025.1 mb 0.00 in0.0 mm 0.00 in0.0 mm 0.00 in0.0 mm
04:15 AM 72.0°F22.2°C 55.4°F13.0°C 10% 3.1 mph N5.0 kmh N 6.0 mph9.7 kmh 30.27 in1025.1 mb 0.00 in0.0 mm 0.00 in0.0 mm 0.00 in0.0 mm
04:00 AM 72.0°F22.2°C 55.4°F13.0°C 10% 3.1 mph N5.0 kmh N 6.0 mph9.7 kmh 30.27 in1025.1 mb 0.00 in0.0 mm 0.00 in0.0 mm 0.00 in0.0 mm
03:45 AM 72.0°F22.2°C 55.4°F13.0°C 10% 3.1 mph N5.0 kmh N 6.0 mph9.7 kmh 30.27 in1025.1 mb 0.00 in0.0 mm 0.00 in0.0 mm 0.00 in0.0 mm
03:30 AM 72.0°F22.2°C 55.4°F13.0°C 10% 3.1 mph N5.0 kmh N 6.0 mph9.7 kmh 30.27 in1025.1 mb 0.00 in0.0 mm 0.00 in0.0 mm 0.00 in0.0 mm
03:15 AM 72.0°F22.2°C 55.4°F13.0°C 10% 3.1 mph N5.0 kmh N 6.0 mph9.7 kmh 30.28 in1025.4 mb 0.00 in0.0 mm 0.00 in0.0 mm 0.00 in0.0 mm
03:00 AM 72.0°F22.2°C 55.4°F13.0°C 10% 3.1 mph N5.0 kmh N 6.0 mph9.7 kmh 30.27 in1025.1 mb 0.00 in0.0 mm 0.00 in0.0 mm 0.00 in0.0 mm
02:45 AM 72.0°F22.2°C 55.4°F13.0°C 10% 3.1 mph N5.0 kmh N 6.0 mph9.7 kmh 30.28 in1025.4 mb 0.00 in0.0 mm 0.00 in0.0 mm 0.00 in0.0 mm
02:30 AM 72.0°F22.2°C 55.4°F13.0°C 10% 3.1 mph N5.0 kmh N 6.0 mph9.7 kmh 30.27 in1025.1 mb 0.00 in0.0 mm 0.00 in0.0 mm 0.00 in0.0 mm
02:15 AM 72.0°F22.2°C 55.4°F13.0°C 10% 3.1 mph N5.0 kmh N 6.0 mph9.7 kmh 30.29 in1025.7 mb 0.00 in0.0 mm 0.00 in0.0 mm 0.00 in0.0 mm
02:00 AM 72.0°F22.2°C 55.4°F13.0°C 10% 3.1 mph N5.0 kmh N 6.0 mph9.7 kmh 30.29 in1025.7 mb 0.00 in0.0 mm 0.00 in0.0 mm 0.00 in0.0 mm
01:45 AM 72.0°F22.2°C 55.4°F13.0°C 10% 3.1 mph N5.0 kmh N 6.0 mph9.7 kmh 30.30 in1026.1 mb 0.00 in0.0 mm 0.00 in0.0 mm 0.00 in0.0 mm
01:30 AM 72.0°F22.2°C 55.4°F13.0°C 10% 3.1 mph N5.0 kmh N 6.0 mph9.7 kmh 30.31 in1026.4 mb 0.00 in0.0 mm 0.00 in0.0 mm 0.00 in0.0 mm
01:15 AM 72.0°F22.2°C 55.4°F13.0°C 10% 3.1 mph N5.0 kmh N 6.0 mph9.7 kmh 30.30 in1026.1 mb 0.00 in0.0 mm 0.00 in0.0 mm 0.00 in0.0 mm
01:00 AM 72.0°F22.2°C 55.4°F13.0°C 10% 3.1 mph N5.0 kmh N 6.0 mph9.7 kmh 30.31 in1026.4 mb 0.00 in0.0 mm 0.00 in0.0 mm 0.00 in0.0 mm
12:45 AM 72.0°F22.2°C 55.4°F13.0°C 56% 3.1 mph N5.0 kmh N 6.0 mph9.7 kmh 30.32 in1026.8 mb 0.00 in0.0 mm 0.00 in0.0 mm 0.00 in0.0 mm
12:30 AM 72.0°F22.2°C 55.4°F13.0°C 56% 3.1 mph N5.0 kmh N 6.0 mph9.7 kmh 30.31 in1026.4 mb 0.00 in0.0 mm 0.00 in0.0 mm 0.00 in0.0 mm
12:15 AM 72.0°F22.2°C 55.4°F13.0°C 56% 3.1 mph N5.0 kmh N 6.0 mph9.7 kmh 30.31 in1026.4 mb 0.00 in0.0 mm 0.00 in0.0 mm 0.00 in0.0 mm
12:00 AM 72.0°F22.2°C 55.4°F13.0°C 56% 3.1 mph N5.0 kmh N 6.0 mph9.7 kmh 30.31 in1026.4 mb 0.00 in0.0 mm 0.00 in0.0 mm 0.00 in0.0 mm